Latest Weather Observations for Busselton Jetty

IDW60801

Issued at 10:43 pm WST Tuesday 28 January 2020 (issued every 10 minutes, with the page automatically refreshed every 10 minutes)

About weather observations | Map of weather stations | Latest weather observations for WA | Other Formats
Station Details ID: 009937 Name: BUSSELTON JETTY Lat: -33.63 Lon: 115.34 Height: 3.0 m
Data from the previous 72 hours. | See also: Recent months at Busselton Jetty
Date/Time
WST
Temp
°C
App
Temp
°C
Dew
Point
°C
Rel
Hum
%
Delta-T
°C
Wind Press
QNH
hPa
Press
MSL
hPa
Rain since
9am
mm
Dir  Spd
km/h
Gust
km/h
Spd
kts
Gust
kts
28/10:30pm - - - - - SSW 15 19 8 10 - - -
28/10:00pm - - - - - SSW 19 24 10 13 - - -
28/09:30pm - - - - - SW 24 32 13 17 - - -
28/09:00pm - - - - - SW 26 32 14 17 - - -
28/08:30pm - - - - - SW 26 30 14 16 - - -
28/08:00pm - - - - - SW 28 32 15 17 - - -
28/07:30pm - - - - - SW 30 35 16 19 - - -
28/07:00pm - - - - - SW 33 39 18 21 - - -
28/06:30pm - - - - - SW 33 39 18 21 - - -
28/06:00pm - - - - - SW 33 39 18 21 - - -
28/05:30pm - - - - - SW 28 37 15 20 - - -
28/05:00pm - - - - - WSW 32 37 17 20 - - -
28/04:30pm - - - - - WSW 32 35 17 19 - - -
28/04:00pm - - - - - WSW 26 33 14 18 - - -
28/03:30pm - - - - - WSW 30 33 16 18 - - -
28/03:00pm - - - - - WSW 28 35 15 19 - - -
28/02:30pm - - - - - SW 28 33 15 18 - - -
28/02:00pm - - - - - SW 30 35 16 19 - - -
28/01:30pm - - - - - W 33 37 18 20 - - -
28/01:00pm - - - - - W 32 33 17 18 - - -
28/12:30pm - - - - - W 28 32 15 17 - - -
28/12:00pm - - - - - NW 24 26 13 14 - - -
28/11:30am - - - - - NW 17 19 9 10 - - -
28/11:00am - - - - - NW 19 22 10 12 - - -
28/10:30am - - - - - NW 13 15 7 8 - - -
28/10:00am - - - - - NNW 13 15 7 8 - - -
28/09:30am - - - - - NW 7 9 4 5 - - -
28/09:00am - - - - - SSW 2 7 1 4 - - -
28/08:30am - - - - - S 13 15 7 8 - - -
28/08:00am - - - - - SSW 20 26 11 14 - - -
28/07:30am - - - - - S 19 20 10 11 - - -
28/07:00am - - - - - S 20 26 11 14 - - -
28/06:30am - - - - - S 22 26 12 14 - - -
28/06:00am - - - - - S 22 28 12 15 - - -
28/05:30am - - - - - S 20 26 11 14 - - -
28/05:00am - - - - - SSW 20 26 11 14 - - -
28/04:30am - - - - - SSW 17 19 9 10 - - -
28/04:00am - - - - - S 17 20 9 11 - - -
28/03:30am - - - - - SSW 20 26 11 14 - - -
28/03:00am - - - - - SSW 19 22 10 12 - - -
28/02:30am - - - - - S 20 24 11 13 - - -
28/02:00am - - - - - SSW 22 26 12 14 - - -
28/01:30am - - - - - S 17 19 9 10 - - -
28/01:00am - - - - - S 17 19 9 10 - - -
28/12:30am - - - - - S 17 19 9 10 - - -
28/12:00am - - - - - S 17 19 9 10 - - -
 
Date/Time
WST
Temp
°C
App
Temp
°C
Dew
Point
°C
Rel
Hum
%
Delta-T
°C
Wind Press
QNH
hPa
Press
MSL
hPa
Rain since
9am
mm
Dir  Spd
km/h
Gust
km/h
Spd
kts
Gust
kts
27/11:30pm - - - - - SSW 17 19 9 10 - - -
27/11:00pm - - - - - S 15 17 8 9 - - -
27/10:30pm - - - - - S 13 15 7 8 - - -
27/10:00pm - - - - - SSE 20 28 11 15 - - -
27/09:30pm - - - - - S 28 35 15 19 - - -
27/09:00pm - - - - - S 28 33 15 18 - - -
27/08:30pm - - - - - S 19 26 10 14 - - -
27/08:00pm - - - - - S 22 28 12 15 - - -
27/07:30pm - - - - - S 32 39 17 21 - - -
27/07:00pm - - - - - S 32 39 17 21 - - -
27/06:30pm - - - - - S 30 37 16 20 - - -
27/06:00pm - - - - - S 35 41 19 22 - - -
27/05:30pm - - - - - S 35 43 19 23 - - -
27/05:00pm - - - - - SSW 33 39 18 21 - - -
27/04:30pm - - - - - W 22 24 12 13 - - -
27/04:00pm - - - - - WNW 22 24 12 13 - - -
27/03:30pm - - - - - WNW 20 22 11 12 - - -
27/03:00pm - - - - - WNW 28 28 15 15 - - -
27/02:30pm - - - - - WNW 22 22 12 12 - - -
27/02:00pm - - - - - WNW 24 26 13 14 - - -
27/01:30pm - - - - - WNW 22 24 12 13 - - -
27/01:00pm - - - - - WNW 19 22 10 12 - - -
27/12:30pm - - - - - WNW 13 15 7 8 - - -
27/12:00pm - - - - - W 11 15 6 8 - - -
27/11:30am - - - - - W 7 9 4 5 - - -
27/11:00am - - - - - W 4 9 2 5 - - -
27/10:30am - - - - - S 6 9 3 5 - - -
27/10:00am - - - - - SSE 13 22 7 12 - - -
27/09:30am - - - - - S 15 19 8 10 - - -
27/09:00am - - - - - S 13 17 7 9 - - -
27/08:30am - - - - - SSE 11 15 6 8 - - -
27/08:00am - - - - - SE 11 15 6 8 - - -
27/07:30am - - - - - SE 13 15 7 8 - - -
27/07:00am - - - - - SSE 15 19 8 10 - - -
27/06:30am - - - - - SSE 17 19 9 10 - - -
27/06:00am - - - - - SSE 15 17 8 9 - - -
27/05:30am - - - - - SSE 15 17 8 9 - - -
27/05:00am - - - - - SSE 13 15 7 8 - - -
27/04:30am - - - - - S 19 22 10 12 - - -
27/04:00am - - - - - S 15 17 8 9 - - -
27/03:30am - - - - - S 17 19 9 10 - - -
27/03:00am - - - - - S 19 24 10 13 - - -
27/02:30am - - - - - S 24 28 13 15 - - -
27/02:00am - - - - - S 17 20 9 11 - - -
27/01:30am - - - - - S 19 20 10 11 - - -
27/01:00am - - - - - S 15 17 8 9 - - -
27/12:30am - - - - - SSE 15 17 8 9 - - -
27/12:00am - - - - - SSE 20 26 11 14 - - -
 
Date/Time
WST
Temp
°C
App
Temp
°C
Dew
Point
°C
Rel
Hum
%
Delta-T
°C
Wind Press
QNH
hPa
Press
MSL
hPa
Rain since
9am
mm
Dir  Spd
km/h
Gust
km/h
Spd
kts
Gust
kts
26/11:30pm - - - - - SSE 22 28 12 15 - - -
26/11:00pm - - - - - SSE 19 26 10 14 - - -
26/10:30pm - - - - - SSE 28 33 15 18 - - -
26/10:00pm - - - - - SSE 26 32 14 17 - - -
26/09:30pm - - - - - SSE 22 30 12 16 - - -
26/09:00pm - - - - - SSE 26 33 14 18 - - -
26/08:30pm - - - - - SSE 28 35 15 19 - - -
26/08:00pm - - - - - S 30 39 16 21 - - -
26/07:30pm - - - - - S 33 41 18 22 - - -
26/07:00pm - - - - - S 33 41 18 22 - - -
26/06:30pm - - - - - SSW 35 41 19 22 - - -
26/06:00pm - - - - - S 37 41 20 22 - - -
26/05:30pm - - - - - SSW 33 39 18 21 - - -
26/05:00pm - - - - - SSW 32 37 17 20 - - -
26/04:30pm - - - - - SSW 32 43 17 23 - - -
26/04:00pm - - - - - WSW 26 37 14 20 - - -
26/03:30pm - - - - - WNW 35 37 19 20 - - -
26/03:00pm - - - - - WNW 32 35 17 19 - - -
26/02:30pm - - - - - NW 32 35 17 19 - - -
26/02:00pm - - - - - NW 28 32 15 17 - - -
26/01:30pm - - - - - NW 26 28 14 15 - - -
26/01:00pm - - - - - NW 24 26 13 14 - - -
26/12:30pm - - - - - NW 24 28 13 15 - - -
26/12:00pm - - - - - WNW 22 26 12 14 - - -
26/11:30am - - - - - WNW 17 17 9 9 - - -
26/11:00am - - - - - W 6 9 3 5 - - -
26/10:30am - - - - - S 4 7 2 4 - - -
26/10:00am - - - - - SSE 15 20 8 11 - - -
26/09:30am - - - - - SSE 19 24 10 13 - - -
26/09:00am - - - - - SSE 17 22 9 12 - - -
26/08:30am - - - - - SSE 24 30 13 16 - - -
26/08:00am - - - - - SSE 22 30 12 16 - - -
26/07:30am - - - - - SSE 22 30 12 16 - - -
26/07:00am - - - - - SSE 22 28 12 15 - - -
26/06:30am - - - - - SSE 20 28 11 15 - - -
26/06:00am - - - - - S 17 20 9 11 - - -
26/05:30am - - - - - SSE 17 26 9 14 - - -
26/05:00am - - - - - SSE 20 26 11 14 - - -
26/04:30am - - - - - SSE 19 26 10 14 - - -
26/04:00am - - - - - SSE 19 26 10 14 - - -
26/03:30am - - - - - SSE 20 26 11 14 - - -
26/03:00am - - - - - SE 20 28 11 15 - - -
26/02:30am - - - - - SSE 22 30 12 16 - - -
26/02:00am - - - - - SSE 26 35 14 19 - - -
26/01:30am - - - - - SE 28 33 15 18 - - -
26/01:00am - - - - - SSE 32 37 17 20 - - -
26/12:30am - - - - - SE 32 39 17 21 - - -
26/12:00am - - - - - SE 30 35 16 19 - - -
 
Date/Time
WST
Temp
°C
App
Temp
°C
Dew
Point
°C
Rel
Hum
%
Delta-T
°C
Wind Press
QNH
hPa
Press
MSL
hPa
Rain since
9am
mm
Dir  Spd
km/h
Gust
km/h
Spd
kts
Gust
kts
25/11:30pm - - - - - SSE 28 33 15 18 - - -
25/11:00pm - - - - - SSE 24 32 13 17 - - -

Other formats

Comma delimited format used in spreadsheet applications
http://www.bom.gov.au/fwo/IDW60801/IDW60801.95602.axf

JavaScript Object Notation format (JSON) in row-major order
http://www.bom.gov.au/fwo/IDW60801/IDW60801.95602.json

Data quality

Most of these data are generated automatically and are frequently updated. Quality checks on data are not normally performed. It is possible for incorrect values to appear. Refer to information at About Latest Weather Observations and please check the disclaimer before using these data.